This is the latest recevied weather packets stored in our database for station/object KB3HLL. If no packets are shown the sender has not sent any weather packets the latest 1 day(s).
| Time | Temp. | Humidity | Pressure | Rain* | Wind** | Luminosity | Snow |
|---|---|---|---|---|---|---|---|
| 1778070080 | 11.67° C | 99% | 1006.2 hPa | 1.27 mm | - | 26 W/m² | - |
| 1778069180 | 11.67° C | 99% | 1006.9 hPa | 1.27 mm | - | 19 W/m² | - |
| 1778068882 | 11.67° C | 99% | 1007.1 hPa | 1.27 mm | - | 19 W/m² | - |
| 1778068281 | 11.67° C | 99% | 1006.4 hPa | 1.52 mm | - | 19 W/m² | - |
| 1778067978 | 11.67° C | 99% | 1006.5 hPa | 1.52 mm | - | 20 W/m² | - |
| 1778067380 | 11.67° C | 99% | 1006.4 hPa | 1.27 mm | - | 27 W/m² | - |
| 1778065580 | 12.78° C | 98% | 1009 hPa | 1.78 mm | - | 20 W/m² | - |
| 1778065280 | 12.78° C | 96% | 1009.3 hPa | 1.78 mm | - | 10 W/m² | - |
| 1778064380 | 12.78° C | 95% | 1009.2 hPa | 1.27 mm | - | 11 W/m² | - |
| 1778064079 | 12.78° C | 96% | 1009.2 hPa | 1.27 mm | - | 7 W/m² | - |
| 1778063780 | 12.78° C | 96% | 1009.2 hPa | 1.27 mm | - | 4 W/m² | - |
| 1778063479 | 12.78° C | 97% | 1009.1 hPa | 1.27 mm | - | 4 W/m² | - |
| 1778062878 | 12.78° C | 96% | 1009.5 hPa | 1.02 mm | - | 1 W/m² | - |
| 1778062580 | 13.33° C | 96% | 1009.5 hPa | 1.02 mm | - | 1 W/m² | - |
| 1778062277 | 13.33° C | 94% | 1009.6 hPa | 0.76 mm | - | 1 W/m² | - |
| 1778061980 | 13.33° C | 95% | 1009.5 hPa | 1.02 mm | - | 1 W/m² | - |
| 1778061678 | 13.33° C | 93% | 1009.6 hPa | 1.02 mm | - | 0 W/m² | - |
| 1778061081 | 12.78° C | 93% | 1009.5 hPa | 1.27 mm | - | 0 W/m² | - |
| 1778060780 | 12.78° C | 93% | 1009.5 hPa | 1.52 mm | - | 0 W/m² | - |
| 1778060479 | 12.78° C | 95% | 1009.4 hPa | 1.52 mm | - | 0 W/m² | - |
| 1778059880 | 13.33° C | 94% | 1009.5 hPa | 1.52 mm | - | 0 W/m² | - |
| 1778059580 | 13.33° C | 92% | 1009.5 hPa | 1.52 mm | - | 0 W/m² | - |
| 1778058979 | 13.33° C | 91% | 1009.6 hPa | 1.27 mm | - | 0 W/m² | - |
| 1778058681 | 13.89° C | 90% | 1009.6 hPa | 1.27 mm | - | 0 W/m² | - |
| 1778057180 | 15° C | 82% | 1009.6 hPa | 1.02 mm | - | 0 W/m² | - |
* Rain latest hour (hover to see other rain measurements)
** Current wind speed in m/s (hover to see current wind gust speed)